Fairmont City, Illinois
Current Conditions -  °F | °C
As of 8:53 AM on Monday 24 Nov 2014 (Local Time) from KCPS Reporting Station
Overcast Overcast  
Wind Chill: 30°   Ceiling: 2700
Heat Index: 39°   Visibility: 10mi
Dew Point: 29°   Wind: 16mph
Humidity: 67%   Direction: 260°W
Pressure: 29.63"   Gusts: 31mph
Location:  38.6386°N, 90.1321°W
Report Text: KCPS 241453Z 26014G27KT 10SM OVC027 04/M02 A2963 RMK AO2 PK WND 24027/1450 SLP033 60000 T00391017 53055
Loading
Personal Weather Stations






























Interactive Weather Map New forecast layout! Learn more

10-Day Weather Forecast

Advertisements
Track Severe Weather on mobile